ADDS TAF Data INFO
IDs: Format: Raw Decoded Include METARs

Data at: 1346 UTC 18 Jan 2018

KMRB 181253Z 22003KT 10SM CLR M09/M16 A3017 RMK AO2 SLP226 T10891156

KMRB 181135Z 1812/1912 VRB03KT P6SM FEW150 WS020/30035KT
  FM181400 26013G21KT P6SM FEW150
  FM182200 30010KT P6SM SKC
  FM190100 29006KT P6SM SKC